Time;durP1;ratioP1;P1;durP2;ratioP2;P2;SDS_P1;SDS_P2;PMS_P1;PMS_P2;Temp;Humidity;BMP_temperature;BMP_pressure;BME280_temperature;BME280_humidity;BME280_pressure;Samples;Min_cycle;Max_cycle;Signal;HPM_P1;HPM_P2
2022/04/22 00:01:11;;;;;;;10.80;3.42;;;12.70;95.50;;;;;;5093274;28;20242;-64
2022/04/22 00:03:38;;;;;;;3.40;3.10;;;12.60;95.50;;;;;;5092787;28;20239;-64
2022/04/22 00:06:05;;;;;;;5.80;3.40;;;12.60;95.60;;;;;;5093119;28;20226;-64
2022/04/22 00:08:32;;;;;;;3.50;3.20;;;12.50;95.50;;;;;;5092885;28;20219;-65
2022/04/22 00:13:44;;;;;;;6.85;3.97;;;12.50;95.80;;;;;;5092386;27;20706;-64
2022/04/22 00:16:12;;;;;;;3.65;3.25;;;12.40;95.80;;;;;;5092658;28;20748;-64
2022/04/22 00:18:39;;;;;;;4.70;3.22;;;12.40;96.00;;;;;;5092711;28;20616;-64
2022/04/22 00:21:07;;;;;;;5.03;3.58;;;12.30;96.10;;;;;;5092881;28;20227;-64
2022/04/22 00:23:34;;;;;;;5.50;4.25;;;12.20;96.10;;;;;;5092639;28;20292;-63
2022/04/22 00:26:01;;;;;;;4.60;3.97;;;12.10;96.20;;;;;;5092922;28;20306;-64
2022/04/22 00:28:28;;;;;;;6.50;3.28;;;12.10;96.40;;;;;;5094384;28;20716;-65
2022/04/22 00:30:56;;;;;;;6.57;4.78;;;12.00;96.50;;;;;;5093870;28;20226;-64
2022/04/22 00:33:24;;;;;;;5.25;3.97;;;12.00;96.60;;;;;;5084884;28;20216;-65
2022/04/22 00:35:51;;;;;;;5.00;4.18;;;11.90;96.70;;;;;;5092153;28;20223;-64
2022/04/22 00:38:18;;;;;;;12.13;5.03;;;11.90;96.80;;;;;;5092893;28;20563;-64
2022/04/22 00:40:45;;;;;;;7.53;5.10;;;11.80;96.80;;;;;;5092035;28;20230;-64
2022/04/22 00:43:16;;;;;;;5.95;4.60;;;11.70;97.00;;;;;;5092880;28;20230;-64
2022/04/22 00:45:43;;;;;;;4.45;4.00;;;11.70;97.30;;;;;;5086102;28;20241;-64
2022/04/22 00:48:10;;;;;;;6.90;4.43;;;11.70;97.40;;;;;;5092662;28;20832;-64
2022/04/22 00:50:38;;;;;;;6.45;4.05;;;11.60;97.40;;;;;;5092242;28;20219;-65
2022/04/22 00:53:05;;;;;;;9.13;5.15;;;11.60;97.70;;;;;;5079793;28;20219;-63
2022/04/22 00:55:32;;;;;;;6.18;4.00;;;11.60;97.80;;;;;;5091554;28;20230;-64
2022/04/22 00:58:00;;;;;;;8.10;4.85;;;11.60;97.80;;;;;;5092703;28;20669;-64
2022/04/22 01:00:27;;;;;;;6.63;4.95;;;11.50;97.70;;;;;;5091463;28;20219;-64
2022/04/22 01:02:55;;;;;;;7.05;5.07;;;11.50;98.00;;;;;;5092123;28;20229;-65
2022/04/22 01:10:54;;;;;;;6.60;5.43;;;11.40;98.20;;;;;;5096616;28;20249;-63
2022/04/22 01:13:21;;;;;;;11.95;9.13;;;11.30;98.40;;;;;;5082886;27;20684;-63
2022/04/22 01:15:48;;;;;;;11.77;8.20;;;11.20;98.40;;;;;;5096452;27;20238;-64
2022/04/22 01:18:16;;;;;;;7.30;6.20;;;11.20;98.50;;;;;;5096078;28;20227;-65
2022/04/22 01:20:43;;;;;;;6.93;5.20;;;11.20;98.60;;;;;;5096126;28;20223;-65
2022/04/22 01:23:11;;;;;;;6.45;5.82;;;11.20;98.70;;;;;;5089066;28;20230;-64
2022/04/22 01:25:37;;;;;;;7.25;6.00;;;11.10;98.80;;;;;;5096496;28;20218;-64
2022/04/22 01:28:05;;;;;;;6.82;5.38;;;11.10;98.90;;;;;;5095776;28;20568;-65
2022/04/22 01:30:32;;;;;;;8.80;5.38;;;11.10;98.90;;;;;;5091026;28;20219;-63
2022/04/22 01:32:58;;;;;;;8.23;5.10;;;11.00;98.90;;;;;;5095470;28;20219;-64
2022/04/22 01:35:26;;;;;;;8.43;5.32;;;11.00;99.00;;;;;;5095490;28;20234;-65
2022/04/22 01:37:53;;;;;;;8.45;6.60;;;10.90;99.10;;;;;;5096022;28;20230;-63
2022/04/22 01:40:21;;;;;;;9.63;5.93;;;10.80;99.30;;;;;;5095617;28;20709;-65
2022/04/22 01:42:48;;;;;;;10.43;5.38;;;10.80;99.50;;;;;;5085124;28;20232;-64
2022/04/22 01:45:15;;;;;;;8.40;7.15;;;10.80;99.60;;;;;;5095197;28;20215;-64
2022/04/22 01:47:43;;;;;;;7.50;6.68;;;10.80;99.60;;;;;;5096011;28;20231;-64
2022/04/22 01:50:10;;;;;;;7.78;5.30;;;10.80;99.70;;;;;;5095315;28;20277;-64
2022/04/22 01:52:39;;;;;;;7.22;5.75;;;10.80;99.90;;;;;;5094649;28;20549;-65
2022/04/22 01:55:06;;;;;;;9.85;6.13;;;10.80;99.90;;;;;;5095605;28;20239;-63
2022/04/22 01:57:34;;;;;;;8.43;5.60;;;10.70;99.90;;;;;;5095398;28;20215;-64
2022/04/22 02:00:02;;;;;;;10.35;6.55;;;10.70;99.90;;;;;;5094573;28;20231;-64
2022/04/22 02:02:29;;;;;;;7.07;6.22;;;10.70;99.80;;;;;;5094048;28;20231;-64
2022/04/22 02:04:56;;;;;;;9.15;5.70;;;10.60;99.90;;;;;;5094132;28;20678;-64
2022/04/22 02:07:23;;;;;;;9.10;6.38;;;10.60;99.90;;;;;;5094075;28;20235;-64
2022/04/22 02:09:49;;;;;;;8.02;6.05;;;10.60;99.90;;;;;;5094212;28;20223;-64
2022/04/22 02:12:16;;;;;;;8.52;6.28;;;10.60;99.90;;;;;;5093777;28;20265;-64
2022/04/22 02:14:44;;;;;;;9.80;6.43;;;10.50;99.90;;;;;;5093855;27;20295;-65
2022/04/22 02:17:11;;;;;;;12.18;8.75;;;10.50;99.90;;;;;;5093786;28;20216;-65
2022/04/22 02:19:40;;;;;;;13.48;8.60;;;10.40;99.90;;;;;;5094052;28;20219;-65
2022/04/22 02:22:07;;;;;;;11.07;7.43;;;10.40;99.90;;;;;;5093615;28;20319;-65
2022/04/22 02:24:34;;;;;;;8.30;5.95;;;10.40;99.90;;;;;;5092713;28;20247;-65
2022/04/22 02:29:47;;;;;;;9.43;6.25;;;10.40;99.90;;;;;;5094268;28;20643;-65
2022/04/22 02:32:14;;;;;;;6.30;5.07;;;10.40;99.90;;;;;;5093535;28;20243;-64
2022/04/22 02:34:40;;;;;;;7.38;5.82;;;10.40;99.90;;;;;;5093631;28;20219;-65
2022/04/22 02:37:07;;;;;;;8.43;5.35;;;10.50;99.90;;;;;;5093407;28;20223;-65
2022/04/22 02:39:34;;;;;;;8.90;6.18;;;10.50;99.90;;;;;;5093900;28;20565;-65
2022/04/22 02:47:30;;;;;;;9.00;5.80;;;10.60;99.90;;;;;;5093866;28;20252;-64
2022/04/22 02:49:57;;;;;;;6.15;5.15;;;10.60;99.90;;;;;;5093339;28;20220;-64
2022/04/22 02:52:24;;;;;;;8.55;6.00;;;10.70;99.90;;;;;;5093311;28;20219;-64
2022/04/22 02:54:51;;;;;;;11.32;6.68;;;10.70;99.90;;;;;;5093024;28;20236;-63
2022/04/22 02:57:18;;;;;;;11.15;7.18;;;10.70;99.90;;;;;;5093458;28;20230;-64
2022/04/22 02:59:48;;;;;;;11.00;5.82;;;10.70;99.90;;;;;;5086113;28;167051;-64
2022/04/22 03:02:15;;;;;;;6.90;5.45;;;10.80;99.90;;;;;;5092769;28;20294;-64
2022/04/22 03:04:42;;;;;;;6.70;6.03;;;10.80;99.90;;;;;;5094347;28;20250;-64
2022/04/22 03:07:09;;;;;;;7.13;5.57;;;10.70;99.90;;;;;;5094619;28;20581;-64
2022/04/22 03:09:36;;;;;;;5.90;5.40;;;10.70;99.90;;;;;;5094089;28;20215;-64
2022/04/22 03:12:03;;;;;;;9.90;5.55;;;10.70;99.90;;;;;;5094021;28;20235;-64
2022/04/22 03:14:30;;;;;;;8.77;6.40;;;10.70;99.90;;;;;;5094343;28;20223;-64
2022/04/22 03:16:58;;;;;;;7.22;5.80;;;10.70;99.90;;;;;;5093817;28;20219;-63
2022/04/22 03:19:25;;;;;;;11.88;6.00;;;10.60;99.90;;;;;;5094444;28;20227;-63
2022/04/22 03:21:52;;;;;;;10.13;6.85;;;10.60;99.90;;;;;;5093527;28;20724;-64
2022/04/22 03:24:18;;;;;;;8.93;6.40;;;10.60;99.90;;;;;;5094282;28;20215;-64
2022/04/22 03:26:45;;;;;;;7.00;6.30;;;10.50;99.90;;;;;;5093032;28;20219;-65
2022/04/22 03:29:12;;;;;;;9.18;6.57;;;10.50;99.90;;;;;;5093955;28;20705;-64
2022/04/22 03:31:39;;;;;;;8.63;6.00;;;10.50;99.90;;;;;;5093527;28;20243;-65
2022/04/22 03:34:07;;;;;;;9.25;6.80;;;10.40;99.90;;;;;;5093811;28;20222;-64
2022/04/22 03:36:34;;;;;;;7.85;6.00;;;10.40;99.90;;;;;;5093804;28;20223;-64
2022/04/22 03:39:01;;;;;;;9.57;7.13;;;10.40;99.90;;;;;;5093651;28;20235;-65
2022/04/22 03:41:27;;;;;;;7.82;5.65;;;10.40;99.90;;;;;;5093694;28;20246;-65
2022/04/22 03:43:55;;;;;;;6.70;6.10;;;10.40;99.90;;;;;;5093379;28;20705;-65
2022/04/22 03:46:22;;;;;;;10.15;7.05;;;10.30;99.90;;;;;;5093856;28;20231;-64
2022/04/22 03:48:49;;;;;;;12.02;7.85;;;10.30;99.90;;;;;;5093310;28;20223;-64
2022/04/22 03:51:17;;;;;;;8.02;7.15;;;10.30;99.90;;;;;;5093612;28;20219;-64
2022/04/22 03:53:44;;;;;;;6.65;5.65;;;10.30;99.90;;;;;;5093334;28;20239;-65
2022/04/22 03:58:55;;;;;;;8.73;6.90;;;10.20;99.90;;;;;;5072906;28;20274;-64
2022/04/22 04:01:21;;;;;;;9.73;6.40;;;10.30;99.90;;;;;;5073193;28;20693;-64
2022/04/22 04:03:48;;;;;;;12.10;6.45;;;10.30;99.90;;;;;;5072786;28;20224;-64
2022/04/22 04:06:16;;;;;;;8.35;5.85;;;10.30;99.90;;;;;;5073257;28;20220;-65
2022/04/22 04:15:57;;;;;;;8.80;7.18;;;10.30;99.90;;;;;;5072796;28;20231;-65
2022/04/22 04:16:58;;;;;;;12.60;7.53;;;10.40;99.90;;;;;;5093669;28;20292;-64
2022/04/22 04:24:55;;;;;;;7.70;6.90;;;10.30;99.90;;;;;;5093267;28;20356;-64
2022/04/22 04:27:22;;;;;;;8.68;6.97;;;10.20;99.90;;;;;;5092723;28;20576;-65
2022/04/22 04:29:48;;;;;;;11.70;7.28;;;10.30;99.90;;;;;;5093205;28;20246;-64
2022/04/22 04:32:17;;;;;;;8.60;7.10;;;10.30;99.90;;;;;;5092494;28;20223;-65
2022/04/22 04:34:44;;;;;;;11.55;6.82;;;10.30;99.90;;;;;;5092995;28;20622;-66
2022/04/22 04:37:13;;;;;;;8.02;7.15;;;10.30;99.90;;;;;;5092575;28;20239;-64
2022/04/22 04:39:40;;;;;;;8.48;7.60;;;10.30;99.90;;;;;;5092935;28;20219;-65
2022/04/22 04:42:08;;;;;;;9.55;7.20;;;10.30;99.90;;;;;;5092411;28;20262;-65
2022/04/22 04:44:36;;;;;;;12.05;7.47;;;10.30;99.90;;;;;;5092949;28;20247;-65
2022/04/22 04:47:02;;;;;;;9.82;7.30;;;10.30;99.90;;;;;;5092352;28;20240;-64
2022/04/22 04:49:29;;;;;;;9.90;8.32;;;10.30;99.90;;;;;;5092882;28;20223;-64
2022/04/22 04:51:57;;;;;;;9.43;8.35;;;10.30;99.90;;;;;;5092876;28;20258;-65
2022/04/22 04:54:25;;;;;;;11.50;8.00;;;10.20;99.90;;;;;;5092300;28;20232;-66
2022/04/22 04:56:52;;;;;;;12.35;7.88;;;10.20;99.90;;;;;;5092657;28;20681;-64
2022/04/22 04:59:19;;;;;;;9.85;7.88;;;10.20;99.90;;;;;;5092241;28;20224;-64
2022/04/22 05:01:46;;;;;;;14.50;7.45;;;10.30;99.90;;;;;;5092628;28;20306;-63
2022/04/22 05:04:13;;;;;;;9.55;8.30;;;10.40;99.90;;;;;;5092304;28;20238;-65
2022/04/22 05:06:40;;;;;;;7.63;6.85;;;10.30;99.90;;;;;;5092749;28;20238;-65
2022/04/22 05:09:07;;;;;;;9.50;7.47;;;10.30;99.90;;;;;;5092200;28;20220;-63
2022/04/22 05:11:35;;;;;;;9.02;7.43;;;10.40;99.90;;;;;;5092714;28;20238;-64
2022/04/22 05:14:03;;;;;;;8.70;7.55;;;10.40;99.90;;;;;;5092458;28;20230;-65
2022/04/22 05:16:30;;;;;;;10.05;7.78;;;10.50;99.90;;;;;;5092153;28;20251;-65
2022/04/22 05:18:57;;;;;;;12.10;7.80;;;10.50;99.90;;;;;;5092674;28;20238;-64
2022/04/22 05:21:23;;;;;;;8.25;7.45;;;10.60;99.90;;;;;;5092111;28;20231;-64
2022/04/22 05:23:50;;;;;;;10.32;7.40;;;10.60;99.90;;;;;;5092478;28;20223;-64
2022/04/22 05:26:17;;;;;;;11.82;7.60;;;10.70;99.90;;;;;;5092089;28;20250;-64
2022/04/22 05:28:45;;;;;;;12.38;8.57;;;10.70;99.90;;;;;;5092585;28;20223;-65
2022/04/22 05:33:56;;;;;;;10.75;8.77;;;10.90;99.90;;;;;;5092362;28;20566;-64
2022/04/22 05:36:23;;;;;;;11.48;8.23;;;10.90;99.90;;;;;;5091976;28;20238;-64
2022/04/22 05:38:51;;;;;;;11.35;7.97;;;10.90;99.90;;;;;;5092373;28;20223;-64
2022/04/22 05:41:18;;;;;;;11.18;7.43;;;11.00;99.90;;;;;;5092017;28;20644;-64
2022/04/22 05:43:46;;;;;;;10.18;8.10;;;11.10;99.90;;;;;;5092281;28;20230;-65
2022/04/22 05:46:13;;;;;;;8.43;7.25;;;11.10;99.90;;;;;;5091855;28;20231;-65
2022/04/22 05:48:40;;;;;;;10.35;7.75;;;11.20;99.90;;;;;;5092363;28;20223;-65
2022/04/22 05:51:06;;;;;;;11.27;8.75;;;11.20;99.90;;;;;;5094965;28;20284;-65
2022/04/22 05:53:33;;;;;;;9.27;8.38;;;11.20;99.90;;;;;;5095554;28;20657;-65
2022/04/22 05:56:00;;;;;;;11.43;7.80;;;11.20;99.90;;;;;;5096057;28;20223;-65
2022/04/22 05:58:27;;;;;;;7.60;6.80;;;11.30;99.90;;;;;;5095226;28;20790;-65
2022/04/22 06:00:55;;;;;;;10.40;7.22;;;11.30;99.90;;;;;;5095770;28;20250;-64
2022/04/22 06:03:22;;;;;;;14.95;8.00;;;11.40;99.90;;;;;;5095426;28;20227;-65
2022/04/22 06:05:48;;;;;;;7.75;6.80;;;11.40;99.90;;;;;;5095776;28;20223;-65
2022/04/22 06:10:59;;;;;;;9.88;8.23;;;11.50;99.90;;;;;;5095622;28;20326;-64
2022/04/22 06:13:26;;;;;;;9.35;8.45;;;11.60;99.70;;;;;;5095088;28;20556;-66
2022/04/22 06:15:53;;;;;;;8.87;8.00;;;11.60;99.60;;;;;;5095473;28;20239;-64
2022/04/22 06:18:23;;;;;;;10.32;7.53;;;11.60;99.70;;;;;;5095044;28;20223;-64
2022/04/22 06:20:51;;;;;;;9.63;7.38;;;11.60;99.50;;;;;;5095521;28;20231;-64
2022/04/22 06:23:18;;;;;;;13.88;9.15;;;11.70;99.60;;;;;;5095041;28;20547;-65
2022/04/22 06:25:48;;;;;;;9.75;8.75;;;11.80;99.60;;;;;;5095275;28;20223;-65
2022/04/22 06:28:14;;;;;;;12.00;7.93;;;11.80;99.50;;;;;;5095141;28;20545;-65
2022/04/22 06:30:42;;;;;;;9.52;8.63;;;11.90;99.50;;;;;;5095169;28;20226;-65
2022/04/22 06:33:09;;;;;;;11.38;8.60;;;11.90;99.30;;;;;;5095114;28;20235;-64
2022/04/22 06:35:38;;;;;;;9.50;7.13;;;12.00;99.00;;;;;;5094686;28;20219;-64
2022/04/22 06:38:08;;;;;;;14.18;8.73;;;12.10;98.70;;;;;;5095138;28;20605;-64
2022/04/22 06:46:04;;;;;;;21.52;8.02;;;12.20;98.10;;;;;;5095035;28;20229;-64
2022/04/22 06:48:33;;;;;;;10.13;6.85;;;12.30;97.80;;;;;;5094516;28;20219;-64
2022/04/22 06:51:02;;;;;;;9.90;7.47;;;12.30;97.80;;;;;;5094699;28;20234;-64
2022/04/22 06:53:30;;;;;;;7.80;7.10;;;12.40;97.60;;;;;;5094424;28;20227;-64
2022/04/22 06:55:59;;;;;;;8.48;6.05;;;12.20;97.60;;;;;;5094847;28;20234;-64
2022/04/22 06:58:26;;;;;;;10.35;7.55;;;12.10;97.80;;;;;;5093969;28;20746;-63
2022/04/22 07:00:54;;;;;;;9.50;7.50;;;12.00;98.10;;;;;;5094036;28;20238;-64
2022/04/22 07:03:21;;;;;;;13.85;7.32;;;11.90;98.30;;;;;;5093784;28;20610;-64
2022/04/22 07:05:49;;;;;;;10.70;7.25;;;11.90;98.40;;;;;;5094691;28;20223;-64
2022/04/22 07:08:19;;;;;;;9.10;6.28;;;11.90;98.50;;;;;;5094224;28;20227;-65
2022/04/22 07:10:52;;;;;;;8.95;7.40;;;12.00;98.50;;;;;;5094526;28;20231;-64
2022/04/22 07:13:19;;;;;;;12.10;7.05;;;12.00;98.40;;;;;;5094039;28;20250;-64
2022/04/22 07:15:49;;;;;;;15.98;7.40;;;12.10;98.40;;;;;;5094281;28;20219;-64
2022/04/22 07:18:17;;;;;;;9.50;7.53;;;12.20;98.10;;;;;;5093676;28;20227;-64
2022/04/22 07:20:45;;;;;;;7.47;6.60;;;12.20;97.70;;;;;;5094131;28;20247;-64
2022/04/22 07:23:13;;;;;;;8.88;7.28;;;12.30;97.70;;;;;;5094134;28;20223;-65
2022/04/22 07:25:45;;;;;;;7.85;7.03;;;12.20;97.60;;;;;;5093723;28;20298;-63
2022/04/22 07:28:13;;;;;;;7.90;6.60;;;12.30;97.50;;;;;;5094110;28;20227;-64
2022/04/22 07:30:45;;;;;;;9.45;7.20;;;12.30;97.60;;;;;;5093576;28;20238;-63
2022/04/22 07:33:13;;;;;;;11.10;6.72;;;12.40;97.60;;;;;;5093973;28;20348;-64
2022/04/22 07:35:40;;;;;;;11.07;7.63;;;12.50;97.40;;;;;;5093664;28;20569;-65
2022/04/22 07:38:10;;;;;;;9.77;7.30;;;12.50;97.60;;;;;;5093764;28;20314;-64
2022/04/22 07:40:40;;;;;;;8.20;7.28;;;12.50;97.50;;;;;;5093545;28;20619;-65
2022/04/22 07:48:39;;;;;;;11.80;8.40;;;12.70;97.50;;;;;;5094245;28;20671;-65
2022/04/22 07:51:06;;;;;;;8.82;7.97;;;12.70;97.70;;;;;;5093397;28;20215;-65
2022/04/22 07:53:34;;;;;;;12.55;8.65;;;12.80;97.80;;;;;;5093854;28;20239;-65
2022/04/22 07:56:00;;;;;;;12.68;9.45;;;12.80;97.80;;;;;;5093183;28;20227;-65
2022/04/22 07:58:29;;;;;;;9.27;8.48;;;12.80;98.00;;;;;;5093309;28;20219;-63
2022/04/22 08:00:56;;;;;;;12.90;9.60;;;12.80;98.00;;;;;;5092993;28;20673;-64
2022/04/22 08:03:23;;;;;;;9.93;8.80;;;12.90;98.10;;;;;;5093496;28;20310;-64
2022/04/22 08:05:50;;;;;;;11.13;9.23;;;12.90;98.10;;;;;;5093095;28;20227;-64
2022/04/22 08:08:17;;;;;;;9.95;8.90;;;12.80;98.10;;;;;;5093524;28;20219;-65
2022/04/22 08:10:44;;;;;;;9.30;8.40;;;12.80;98.20;;;;;;5092868;28;20280;-64
2022/04/22 08:13:11;;;;;;;10.70;9.57;;;12.80;98.40;;;;;;5092693;28;20223;-64
2022/04/22 08:15:39;;;;;;;9.48;8.55;;;12.90;98.50;;;;;;5093540;28;20223;-64
2022/04/22 08:18:06;;;;;;;13.18;10.20;;;12.90;98.70;;;;;;5092737;28;20227;-64
2022/04/22 08:20:35;;;;;;;10.68;9.57;;;12.90;98.90;;;;;;5093212;28;20548;-65
2022/04/22 08:23:02;;;;;;;11.77;10.27;;;13.00;98.90;;;;;;5092956;28;20578;-66
2022/04/22 08:25:29;;;;;;;9.82;8.82;;;13.10;99.10;;;;;;5093078;28;20215;-64
2022/04/22 08:27:56;;;;;;;10.55;9.43;;;13.20;99.30;;;;;;5092866;28;20227;-63
2022/04/22 08:30:23;;;;;;;12.70;10.57;;;13.30;99.40;;;;;;5073032;28;20224;-64
2022/04/22 08:32:51;;;;;;;10.57;9.57;;;13.30;99.20;;;;;;5072349;28;20230;-64
2022/04/22 08:35:18;;;;;;;12.50;11.20;;;13.30;99.30;;;;;;5082034;28;20215;-64
2022/04/22 08:37:45;;;;;;;14.73;10.07;;;13.30;99.30;;;;;;5092539;28;20693;-66
2022/04/22 08:40:13;;;;;;;10.70;9.70;;;13.30;99.00;;;;;;5092957;28;20561;-63
2022/04/22 08:42:42;;;;;;;14.32;11.10;;;13.40;99.10;;;;;;5093083;28;20234;-63
2022/04/22 08:45:09;;;;;;;12.35;10.85;;;13.30;99.00;;;;;;5092644;28;20230;-64
2022/04/22 08:50:24;;;;;;;11.57;10.38;;;13.40;99.10;;;;;;5093256;28;20222;-63
2022/04/22 08:52:56;;;;;;;13.32;11.75;;;13.40;99.10;;;;;;5092783;28;20219;-65
2022/04/22 08:55:24;;;;;;;11.45;10.38;;;13.40;99.10;;;;;;5092868;28;20231;-64
2022/04/22 08:57:53;;;;;;;12.98;10.90;;;13.50;99.10;;;;;;5092326;28;20596;-64
2022/04/22 09:00:22;;;;;;;11.63;10.38;;;13.50;99.10;;;;;;5092709;28;20223;-64
2022/04/22 09:02:49;;;;;;;11.45;9.05;;;13.60;99.20;;;;;;5092259;28;20276;-65
2022/04/22 09:05:16;;;;;;;12.13;10.90;;;13.70;99.20;;;;;;5092590;28;20685;-65
2022/04/22 09:07:45;;;;;;;12.52;9.73;;;13.70;98.90;;;;;;5092417;28;20237;-65
2022/04/22 09:10:12;;;;;;;12.68;10.40;;;13.80;98.90;;;;;;5092798;28;20684;-64
2022/04/22 09:12:44;;;;;;;11.75;10.05;;;13.80;98.90;;;;;;5092093;28;20554;-63
2022/04/22 09:15:11;;;;;;;15.75;10.90;;;13.90;98.80;;;;;;5092623;28;20292;-64
2022/04/22 09:17:38;;;;;;;12.40;10.10;;;13.90;98.70;;;;;;5092232;28;20231;-64
2022/04/22 09:20:06;;;;;;;10.77;9.70;;;14.00;98.80;;;;;;5092482;28;20222;-64
2022/04/22 09:22:35;;;;;;;11.45;10.25;;;14.10;98.90;;;;;;5092311;28;20290;-63
2022/04/22 09:25:05;;;;;;;12.90;10.80;;;14.10;98.80;;;;;;5093911;28;20618;-64
2022/04/22 09:27:33;;;;;;;11.10;10.00;;;14.10;98.90;;;;;;5095920;28;20823;-63
2022/04/22 09:30:02;;;;;;;13.43;11.27;;;14.00;99.00;;;;;;5096515;28;20465;-64
2022/04/22 09:32:30;;;;;;;12.43;11.20;;;14.00;99.10;;;;;;5096348;28;20926;-64
2022/04/22 09:34:58;;;;;;;12.87;10.80;;;14.00;99.40;;;;;;5095900;28;20449;-65
2022/04/22 09:43:13;;;;;;;12.53;11.33;;;14.00;99.90;;;;;;5095668;28;20222;-65
2022/04/22 09:45:40;;;;;;;14.20;12.75;;;14.00;99.90;;;;;;5080082;28;20512;-65
2022/04/22 09:48:14;;;;;;;13.25;12.05;;;14.00;99.90;;;;;;5072420;28;20277;-65
2022/04/22 09:50:45;;;;;;;15.60;12.83;;;14.10;99.90;;;;;;5072791;28;20297;-64
2022/04/22 09:53:14;;;;;;;15.07;12.50;;;14.10;99.90;;;;;;5072297;28;20477;-64
2022/04/22 09:55:52;;;;;;;17.13;14.35;;;14.10;99.90;;;;;;5073007;28;20959;-64
2022/04/22 09:58:23;;;;;;;15.60;14.20;;;14.10;99.90;;;;;;5087015;28;20234;-64
2022/04/22 10:00:56;;;;;;;14.82;12.68;;;14.20;99.90;;;;;;5092383;28;20227;-65
2022/04/22 10:03:23;;;;;;;14.67;11.53;;;14.30;99.90;;;;;;5093577;28;20839;-64
2022/04/22 10:05:53;;;;;;;16.13;14.05;;;14.50;99.90;;;;;;5079742;28;20462;-64
2022/04/22 10:08:21;;;;;;;13.77;12.23;;;14.50;99.90;;;;;;5073329;28;20235;-64
2022/04/22 10:10:52;;;;;;;13.63;11.77;;;14.50;99.90;;;;;;5073559;28;20523;-65
2022/04/22 10:13:22;;;;;;;13.30;11.97;;;14.60;99.90;;;;;;5078543;28;25659;-64
2022/04/22 10:15:49;;;;;;;16.67;14.23;;;14.70;99.90;;;;;;5095573;28;20472;-64
2022/04/22 10:18:16;;;;;;;17.30;15.60;;;14.80;99.90;;;;;;5095025;28;20475;-64
2022/04/22 10:20:44;;;;;;;18.03;14.60;;;14.80;99.90;;;;;;5095610;28;20986;-64
2022/04/22 10:23:11;;;;;;;16.33;14.93;;;14.80;99.90;;;;;;5094993;28;20472;-64
2022/04/22 10:25:38;;;;;;;16.80;15.00;;;14.80;99.90;;;;;;5095496;28;20465;-64
2022/04/22 10:28:09;;;;;;;17.63;15.83;;;14.70;99.90;;;;;;5095121;28;20457;-64
2022/04/22 10:30:38;;;;;;;16.83;15.07;;;14.70;99.90;;;;;;5095284;28;20457;-64
2022/04/22 10:33:06;;;;;;;15.93;14.43;;;14.80;99.90;;;;;;5094820;28;20460;-64
2022/04/22 10:35:39;;;;;;;17.50;14.50;;;14.80;99.90;;;;;;5083521;28;20466;-65
2022/04/22 10:38:06;;;;;;;19.03;14.40;;;14.70;99.90;;;;;;5074539;28;21033;-65
2022/04/22 10:40:33;;;;;;;18.57;16.37;;;14.70;99.90;;;;;;5074939;28;20493;-64
2022/04/22 10:43:02;;;;;;;17.50;15.80;;;14.70;99.90;;;;;;5074178;28;20960;-64
2022/04/22 10:48:21;;;;;;;17.00;15.47;;;14.70;99.90;;;;;;5094229;28;20241;-64
2022/04/22 10:50:57;;;;;;;18.33;16.63;;;14.60;99.90;;;;;;5094827;28;20470;-65
2022/04/22 10:53:26;;;;;;;18.97;17.07;;;14.50;99.90;;;;;;5093566;28;20499;-64
2022/04/22 10:55:54;;;;;;;17.53;15.83;;;14.50;99.90;;;;;;5094930;28;20836;-65
2022/04/22 10:58:23;;;;;;;17.07;15.27;;;14.50;99.90;;;;;;5084262;28;20482;-64
2022/04/22 11:00:53;;;;;;;19.20;16.07;;;14.60;99.90;;;;;;5094310;28;20968;-64
2022/04/22 11:03:21;;;;;;;18.30;15.37;;;14.60;99.90;;;;;;5094297;28;20476;-65
2022/04/22 11:05:52;;;;;;;19.27;17.67;;;14.70;99.90;;;;;;5094259;28;20461;-65
2022/04/22 11:08:28;;;;;;;17.47;15.70;;;14.70;99.90;;;;;;5094014;28;20489;-65
2022/04/22 11:11:15;;;;;;;15.40;14.00;;;14.80;99.90;;;;;;5094243;28;20480;-63
2022/04/22 11:13:52;;;;;;;15.93;14.33;;;14.90;99.90;;;;;;5094622;28;20457;-64
2022/04/22 11:16:30;;;;;;;22.23;19.30;;;15.00;99.90;;;;;;5081480;28;20457;-64
2022/04/22 11:19:10;;;;;;;18.33;16.53;;;15.00;99.90;;;;;;5093492;28;20465;-64
2022/04/22 11:21:42;;;;;;;17.67;15.97;;;15.00;99.90;;;;;;5094146;28;20505;-63
2022/04/22 11:24:14;;;;;;;19.33;16.70;;;15.00;99.90;;;;;;5093704;28;20474;-65
2022/04/22 11:26:41;;;;;;;17.93;16.30;;;15.00;99.90;;;;;;5093988;28;20476;-64
2022/04/22 11:29:09;;;;;;;20.80;18.67;;;14.90;99.90;;;;;;5093713;28;20534;-64
2022/04/22 11:31:37;;;;;;;18.97;17.17;;;14.90;99.90;;;;;;5093932;28;20787;-64
2022/04/22 11:34:06;;;;;;;21.03;18.83;;;14.90;99.90;;;;;;5093531;28;20472;-65
2022/04/22 11:36:46;;;;;;;22.23;19.20;;;14.90;99.90;;;;;;5087570;28;20530;-64
2022/04/22 11:39:21;;;;;;;23.27;19.90;;;14.90;99.90;;;;;;5081503;28;20473;-64
2022/04/22 11:41:57;;;;;;;22.67;20.57;;;14.90;99.90;;;;;;5085688;28;20577;-65
2022/04/22 11:44:25;;;;;;;23.57;21.10;;;14.80;99.90;;;;;;5083646;28;20457;-64
2022/04/22 11:46:53;;;;;;;20.70;18.67;;;14.80;99.90;;;;;;5093304;28;20805;-64
2022/04/22 11:49:21;;;;;;;24.23;21.93;;;14.80;99.90;;;;;;5092763;28;20479;-64
2022/04/22 11:51:53;;;;;;;24.87;22.43;;;14.70;99.90;;;;;;5085126;28;20478;-65
2022/04/22 11:54:22;;;;;;;25.87;23.37;;;14.70;99.90;;;;;;5093399;28;20473;-64
2022/04/22 11:56:50;;;;;;;25.93;23.50;;;14.60;99.90;;;;;;5093241;28;20511;-63
2022/04/22 11:59:19;;;;;;;26.27;23.47;;;14.60;99.90;;;;;;5092866;28;20523;-65
2022/04/22 12:09:58;;;;;;;25.67;23.10;;;14.40;99.90;;;;;;5093040;28;20462;-64
2022/04/22 12:12:25;;;;;;;25.80;23.37;;;14.40;99.90;;;;;;5092819;28;20474;-64
2022/04/22 12:14:59;;;;;;;26.27;23.67;;;14.50;99.90;;;;;;5093131;27;20839;-64
2022/04/22 12:17:26;;;;;;;27.57;24.97;;;14.50;99.90;;;;;;5092961;28;20469;-64
2022/04/22 12:19:55;;;;;;;25.33;22.80;;;14.40;99.90;;;;;;5090417;28;20823;-65
2022/04/22 12:22:22;;;;;;;29.10;26.20;;;14.40;99.90;;;;;;5084990;28;20484;-64
2022/04/22 12:25:11;;;;;;;27.80;24.87;;;14.50;99.90;;;;;;5093131;28;20489;-65
2022/04/22 12:27:38;;;;;;;27.37;23.97;;;14.50;99.90;;;;;;5088272;28;20818;-64
2022/04/22 12:30:08;;;;;;;28.70;25.63;;;14.50;99.90;;;;;;5093110;28;20475;-65
2022/04/22 12:32:36;;;;;;;24.67;22.23;;;14.50;99.90;;;;;;5092373;28;20480;-65
2022/04/22 12:35:15;;;;;;;26.47;23.07;;;14.60;99.90;;;;;;5085910;28;20473;-65
2022/04/22 12:37:46;;;;;;;24.23;21.67;;;14.70;99.90;;;;;;5090955;28;20453;-64
2022/04/22 12:40:15;;;;;;;22.90;19.37;;;14.70;99.90;;;;;;5092870;28;20527;-64
2022/04/22 12:42:42;;;;;;;24.47;20.27;;;14.80;99.90;;;;;;5078074;28;20523;-65
2022/04/22 12:53:33;;;;;;;24.30;22.00;;;14.90;99.90;;;;;;5088684;28;21034;-65
2022/04/22 12:56:01;;;;;;;22.90;20.40;;;14.90;99.90;;;;;;5087177;28;20556;-64
2022/04/22 12:58:28;;;;;;;22.90;20.70;;;15.00;99.90;;;;;;5091466;28;20546;-64
2022/04/22 13:00:55;;;;;;;22.17;19.93;;;15.00;99.90;;;;;;5096354;28;20845;-64
2022/04/22 13:03:22;;;;;;;23.73;21.43;;;15.10;99.90;;;;;;5096902;28;20457;-64
2022/04/22 13:05:50;;;;;;;24.23;21.80;;;15.20;99.90;;;;;;5096286;28;20466;-65
2022/04/22 13:08:18;;;;;;;23.93;21.40;;;15.30;99.90;;;;;;5085614;28;20461;-64
2022/04/22 13:10:47;;;;;;;23.47;21.07;;;15.30;99.90;;;;;;5096151;28;21042;-65
2022/04/22 13:13:16;;;;;;;22.70;20.50;;;15.30;99.90;;;;;;5096745;28;20457;-65
2022/04/22 13:15:42;;;;;;;21.90;19.20;;;15.30;99.50;;;;;;5096256;28;20469;-64
2022/04/22 13:18:12;;;;;;;23.23;21.13;;;15.30;99.70;;;;;;5096575;28;20842;-64
2022/04/22 13:20:39;;;;;;;21.90;19.80;;;15.30;99.60;;;;;;5096478;28;20955;-65
2022/04/22 13:23:07;;;;;;;19.77;18.07;;;15.30;99.60;;;;;;5094656;28;20453;-65
2022/04/22 13:25:34;;;;;;;20.30;18.37;;;15.40;99.10;;;;;;5093866;28;20461;-63
2022/04/22 13:28:01;;;;;;;17.83;16.00;;;15.40;98.80;;;;;;5095933;28;20472;-63
2022/04/22 13:30:28;;;;;;;17.20;15.70;;;15.40;98.40;;;;;;5096380;28;20598;-63
2022/04/22 13:32:55;;;;;;;19.07;17.30;;;15.40;98.30;;;;;;5095704;28;20473;-63
2022/04/22 13:35:23;;;;;;;19.30;17.57;;;15.50;98.40;;;;;;5091011;28;20465;-63
2022/04/22 13:37:51;;;;;;;18.20;16.37;;;15.40;98.40;;;;;;5096051;28;20470;-64
2022/04/22 13:40:19;;;;;;;16.30;14.70;;;15.50;98.50;;;;;;5095911;28;20470;-64
2022/04/22 13:42:46;;;;;;;18.67;16.73;;;15.40;98.50;;;;;;5089513;28;20540;-64
2022/04/22 13:53:34;;;;;;;18.00;15.80;;;15.40;98.40;;;;;;5051740;28;20839;-64
2022/04/22 13:56:03;;;;;;;15.97;14.40;;;15.30;98.50;;;;;;5091540;28;20530;-65
2022/04/22 13:58:32;;;;;;;15.00;13.60;;;15.20;98.60;;;;;;5092577;28;20484;-64
2022/04/22 14:00:59;;;;;;;15.50;14.10;;;15.20;98.60;;;;;;5095901;28;20489;-64
2022/04/22 14:03:26;;;;;;;14.80;13.40;;;15.10;98.70;;;;;;5095349;28;20488;-64
2022/04/22 14:05:53;;;;;;;15.57;14.27;;;15.00;98.70;;;;;;5095720;28;20457;-63